sensor_id;sensor_type;location;lat;lon;timestamp;P1;durP1;ratioP1;P2;durP2;ratioP2
78648;SDS011;67962;47.310;9.642;2023-02-26T00:01:01;7.22;;;3.65;;
78648;SDS011;67962;47.310;9.642;2023-02-26T00:03:35;8.85;;;3.80;;
78648;SDS011;67962;47.310;9.642;2023-02-26T00:06:01;10.82;;;3.38;;
78648;SDS011;67962;47.310;9.642;2023-02-26T00:10:52;6.78;;;3.17;;
78648;SDS011;67962;47.310;9.642;2023-02-26T00:13:19;6.05;;;3.00;;
78648;SDS011;67962;47.310;9.642;2023-02-26T00:15:49;9.48;;;4.72;;
78648;SDS011;67962;47.310;9.642;2023-02-26T00:18:20;9.27;;;4.65;;
78648;SDS011;67962;47.310;9.642;2023-02-26T00:20:46;10.02;;;4.63;;
78648;SDS011;67962;47.310;9.642;2023-02-26T00:23:12;9.05;;;4.70;;
78648;SDS011;67962;47.310;9.642;2023-02-26T00:25:41;12.02;;;5.18;;
78648;SDS011;67962;47.310;9.642;2023-02-26T00:28:07;13.05;;;5.93;;
78648;SDS011;67962;47.310;9.642;2023-02-26T00:30:34;10.40;;;5.45;;
78648;SDS011;67962;47.310;9.642;2023-02-26T00:33:00;9.65;;;4.25;;
78648;SDS011;67962;47.310;9.642;2023-02-26T00:35:26;7.90;;;4.20;;
78648;SDS011;67962;47.310;9.642;2023-02-26T00:37:54;9.13;;;4.32;;
78648;SDS011;67962;47.310;9.642;2023-02-26T00:43:59;8.30;;;3.33;;
78648;SDS011;67962;47.310;9.642;2023-02-26T00:51:36;5.90;;;3.08;;
78648;SDS011;67962;47.310;9.642;2023-02-26T00:56:28;10.95;;;3.10;;
78648;SDS011;67962;47.310;9.642;2023-02-26T00:58:54;5.53;;;2.90;;
78648;SDS011;67962;47.310;9.642;2023-02-26T01:01:20;5.50;;;2.83;;
78648;SDS011;67962;47.310;9.642;2023-02-26T01:03:46;5.63;;;2.78;;
78648;SDS011;67962;47.310;9.642;2023-02-26T01:06:12;4.43;;;3.00;;
78648;SDS011;67962;47.310;9.642;2023-02-26T01:11:12;4.57;;;2.40;;
78648;SDS011;67962;47.310;9.642;2023-02-26T01:18:36;3.40;;;2.47;;
78648;SDS011;67962;47.310;9.642;2023-02-26T01:21:02;4.38;;;2.45;;
78648;SDS011;67962;47.310;9.642;2023-02-26T01:25:56;5.72;;;2.55;;
78648;SDS011;67962;47.310;9.642;2023-02-26T01:28:20;5.32;;;2.63;;
78648;SDS011;67962;47.310;9.642;2023-02-26T01:30:46;3.83;;;2.55;;
78648;SDS011;67962;47.310;9.642;2023-02-26T01:43:27;5.60;;;2.50;;
78648;SDS011;67962;47.310;9.642;2023-02-26T01:48:21;3.47;;;2.25;;
78648;SDS011;67962;47.310;9.642;2023-02-26T01:50:44;4.25;;;1.90;;
78648;SDS011;67962;47.310;9.642;2023-02-26T01:55:36;6.15;;;2.40;;
78648;SDS011;67962;47.310;9.642;2023-02-26T01:58:01;6.22;;;2.30;;
78648;SDS011;67962;47.310;9.642;2023-02-26T02:07:53;3.75;;;2.30;;
78648;SDS011;67962;47.310;9.642;2023-02-26T02:25:13;8.10;;;2.67;;
78648;SDS011;67962;47.310;9.642;2023-02-26T02:30:06;5.10;;;2.60;;
78648;SDS011;67962;47.310;9.642;2023-02-26T02:49:46;9.63;;;3.70;;
78648;SDS011;67962;47.310;9.642;2023-02-26T02:54:46;8.00;;;3.72;;
78648;SDS011;67962;47.310;9.642;2023-02-26T02:59:41;5.90;;;3.80;;
78648;SDS011;67962;47.310;9.642;2023-02-26T03:06:59;7.00;;;3.58;;
78648;SDS011;67962;47.310;9.642;2023-02-26T03:09:24;6.18;;;4.55;;
78648;SDS011;67962;47.310;9.642;2023-02-26T03:11:50;8.07;;;4.28;;
78648;SDS011;67962;47.310;9.642;2023-02-26T03:14:16;5.05;;;3.55;;
78648;SDS011;67962;47.310;9.642;2023-02-26T03:26:41;4.90;;;3.92;;
78648;SDS011;67962;47.310;9.642;2023-02-26T03:31:45;5.35;;;3.17;;
78648;SDS011;67962;47.310;9.642;2023-02-26T03:41:29;4.47;;;3.60;;
78648;SDS011;67962;47.310;9.642;2023-02-26T03:43:55;4.82;;;3.30;;
78648;SDS011;67962;47.310;9.642;2023-02-26T03:46:23;4.97;;;3.37;;
78648;SDS011;67962;47.310;9.642;2023-02-26T03:48:54;5.50;;;3.28;;
78648;SDS011;67962;47.310;9.642;2023-02-26T03:51:22;5.68;;;3.15;;
78648;SDS011;67962;47.310;9.642;2023-02-26T03:58:45;5.13;;;3.83;;
78648;SDS011;67962;47.310;9.642;2023-02-26T04:06:06;6.03;;;3.10;;
78648;SDS011;67962;47.310;9.642;2023-02-26T04:08:32;5.70;;;3.40;;
78648;SDS011;67962;47.310;9.642;2023-02-26T04:13:26;3.28;;;2.65;;
78648;SDS011;67962;47.310;9.642;2023-02-26T04:18:21;5.43;;;3.20;;
78648;SDS011;67962;47.310;9.642;2023-02-26T04:20:47;5.65;;;3.17;;
78648;SDS011;67962;47.310;9.642;2023-02-26T04:25:41;6.85;;;3.60;;
78648;SDS011;67962;47.310;9.642;2023-02-26T04:33:00;5.93;;;3.97;;
78648;SDS011;67962;47.310;9.642;2023-02-26T04:35:26;4.35;;;3.08;;
78648;SDS011;67962;47.310;9.642;2023-02-26T04:37:51;5.28;;;3.28;;
78648;SDS011;67962;47.310;9.642;2023-02-26T04:40:17;4.15;;;2.85;;
78648;SDS011;67962;47.310;9.642;2023-02-26T04:42:43;4.13;;;3.10;;
78648;SDS011;67962;47.310;9.642;2023-02-26T04:45:09;3.35;;;2.70;;
78648;SDS011;67962;47.310;9.642;2023-02-26T04:47:34;4.72;;;2.90;;
78648;SDS011;67962;47.310;9.642;2023-02-26T04:54:53;4.43;;;2.85;;
78648;SDS011;67962;47.310;9.642;2023-02-26T04:57:18;3.35;;;2.50;;
78648;SDS011;67962;47.310;9.642;2023-02-26T04:59:44;4.22;;;2.78;;
78648;SDS011;67962;47.310;9.642;2023-02-26T05:02:10;5.68;;;2.70;;
78648;SDS011;67962;47.310;9.642;2023-02-26T05:04:35;4.63;;;2.70;;
78648;SDS011;67962;47.310;9.642;2023-02-26T05:07:01;3.70;;;2.60;;
78648;SDS011;67962;47.310;9.642;2023-02-26T05:09:27;3.72;;;2.60;;
78648;SDS011;67962;47.310;9.642;2023-02-26T05:14:22;3.97;;;2.88;;
78648;SDS011;67962;47.310;9.642;2023-02-26T05:16:48;2.75;;;2.25;;
78648;SDS011;67962;47.310;9.642;2023-02-26T05:19:13;2.88;;;2.47;;
78648;SDS011;67962;47.310;9.642;2023-02-26T05:24:04;3.38;;;2.60;;
78648;SDS011;67962;47.310;9.642;2023-02-26T05:26:30;3.75;;;2.60;;
78648;SDS011;67962;47.310;9.642;2023-02-26T05:28:56;4.03;;;2.42;;
78648;SDS011;67962;47.310;9.642;2023-02-26T05:31:22;4.70;;;2.90;;
78648;SDS011;67962;47.310;9.642;2023-02-26T05:33:48;5.55;;;2.80;;
78648;SDS011;67962;47.310;9.642;2023-02-26T05:36:14;4.05;;;3.15;;
78648;SDS011;67962;47.310;9.642;2023-02-26T05:38:40;4.00;;;2.78;;
78648;SDS011;67962;47.310;9.642;2023-02-26T05:41:05;5.32;;;2.28;;
78648;SDS011;67962;47.310;9.642;2023-02-26T05:43:31;3.97;;;2.72;;
78648;SDS011;67962;47.310;9.642;2023-02-26T05:45:58;2.83;;;2.10;;
78648;SDS011;67962;47.310;9.642;2023-02-26T05:48:23;4.03;;;2.53;;
78648;SDS011;67962;47.310;9.642;2023-02-26T05:53:14;4.25;;;3.03;;
78648;SDS011;67962;47.310;9.642;2023-02-26T05:55:40;3.65;;;2.83;;
78648;SDS011;67962;47.310;9.642;2023-02-26T06:00:32;3.38;;;2.70;;
78648;SDS011;67962;47.310;9.642;2023-02-26T06:02:58;5.72;;;2.90;;
78648;SDS011;67962;47.310;9.642;2023-02-26T06:05:24;5.00;;;2.50;;
78648;SDS011;67962;47.310;9.642;2023-02-26T06:10:15;3.83;;;2.80;;
78648;SDS011;67962;47.310;9.642;2023-02-26T06:12:41;5.20;;;3.03;;
78648;SDS011;67962;47.310;9.642;2023-02-26T06:17:32;3.25;;;2.20;;
78648;SDS011;67962;47.310;9.642;2023-02-26T06:19:58;4.05;;;2.30;;
78648;SDS011;67962;47.310;9.642;2023-02-26T06:22:24;4.80;;;2.38;;
78648;SDS011;67962;47.310;9.642;2023-02-26T06:24:50;3.50;;;2.13;;
78648;SDS011;67962;47.310;9.642;2023-02-26T06:27:16;3.80;;;2.17;;
78648;SDS011;67962;47.310;9.642;2023-02-26T06:29:42;3.15;;;2.10;;
78648;SDS011;67962;47.310;9.642;2023-02-26T06:32:08;8.10;;;2.22;;
78648;SDS011;67962;47.310;9.642;2023-02-26T06:34:33;3.53;;;2.15;;
78648;SDS011;67962;47.310;9.642;2023-02-26T06:39:24;3.60;;;2.20;;
78648;SDS011;67962;47.310;9.642;2023-02-26T06:46:43;4.25;;;2.20;;
78648;SDS011;67962;47.310;9.642;2023-02-26T06:49:09;8.27;;;2.60;;
78648;SDS011;67962;47.310;9.642;2023-02-26T06:51:34;3.30;;;2.20;;
78648;SDS011;67962;47.310;9.642;2023-02-26T06:54:00;3.60;;;2.40;;
78648;SDS011;67962;47.310;9.642;2023-02-26T06:56:25;4.65;;;2.35;;
78648;SDS011;67962;47.310;9.642;2023-02-26T06:58:51;4.35;;;2.42;;
78648;SDS011;67962;47.310;9.642;2023-02-26T07:06:10;3.92;;;2.63;;
78648;SDS011;67962;47.310;9.642;2023-02-26T07:08:37;5.50;;;2.00;;
78648;SDS011;67962;47.310;9.642;2023-02-26T07:11:03;2.55;;;1.90;;
78648;SDS011;67962;47.310;9.642;2023-02-26T07:13:29;5.40;;;3.00;;
78648;SDS011;67962;47.310;9.642;2023-02-26T07:15:55;5.22;;;2.33;;
78648;SDS011;67962;47.310;9.642;2023-02-26T07:18:21;4.65;;;2.22;;
78648;SDS011;67962;47.310;9.642;2023-02-26T07:20:50;4.40;;;2.20;;
78648;SDS011;67962;47.310;9.642;2023-02-26T07:23:16;6.10;;;2.13;;
78648;SDS011;67962;47.310;9.642;2023-02-26T07:25:42;3.28;;;1.92;;
78648;SDS011;67962;47.310;9.642;2023-02-26T07:28:08;4.53;;;2.20;;
78648;SDS011;67962;47.310;9.642;2023-02-26T07:33:02;4.18;;;2.30;;
78648;SDS011;67962;47.310;9.642;2023-02-26T07:40:23;3.45;;;2.40;;
78648;SDS011;67962;47.310;9.642;2023-02-26T07:42:49;4.90;;;2.47;;
78648;SDS011;67962;47.310;9.642;2023-02-26T07:45:15;4.25;;;2.17;;
78648;SDS011;67962;47.310;9.642;2023-02-26T07:50:11;5.70;;;2.17;;
78648;SDS011;67962;47.310;9.642;2023-02-26T07:52:36;5.13;;;2.10;;
78648;SDS011;67962;47.310;9.642;2023-02-26T07:55:02;3.40;;;2.13;;
78648;SDS011;67962;47.310;9.642;2023-02-26T07:57:28;4.95;;;2.28;;
78648;SDS011;67962;47.310;9.642;2023-02-26T07:59:53;5.22;;;2.00;;
78648;SDS011;67962;47.310;9.642;2023-02-26T08:02:19;1.98;;;1.77;;
78648;SDS011;67962;47.310;9.642;2023-02-26T08:04:47;4.82;;;2.20;;
78648;SDS011;67962;47.310;9.642;2023-02-26T08:09:40;5.13;;;1.92;;
78648;SDS011;67962;47.310;9.642;2023-02-26T08:16:58;5.25;;;1.90;;
78648;SDS011;67962;47.310;9.642;2023-02-26T08:21:51;4.80;;;1.85;;
78648;SDS011;67962;47.310;9.642;2023-02-26T08:24:19;3.25;;;1.90;;
78648;SDS011;67962;47.310;9.642;2023-02-26T08:42:02;2.53;;;1.83;;
78648;SDS011;67962;47.310;9.642;2023-02-26T08:44:28;3.53;;;2.00;;
78648;SDS011;67962;47.310;9.642;2023-02-26T08:46:54;3.35;;;1.70;;
78648;SDS011;67962;47.310;9.642;2023-02-26T08:49:20;5.13;;;1.80;;
78648;SDS011;67962;47.310;9.642;2023-02-26T08:54:13;4.85;;;2.20;;
78648;SDS011;67962;47.310;9.642;2023-02-26T08:59:07;3.63;;;1.67;;
78648;SDS011;67962;47.310;9.642;2023-02-26T09:04:01;2.83;;;1.80;;
78648;SDS011;67962;47.310;9.642;2023-02-26T09:08:52;5.20;;;2.35;;
78648;SDS011;67962;47.310;9.642;2023-02-26T09:11:18;2.90;;;2.00;;
78648;SDS011;67962;47.310;9.642;2023-02-26T09:13:44;3.50;;;2.00;;
78648;SDS011;67962;47.310;9.642;2023-02-26T09:16:10;4.55;;;2.05;;
78648;SDS011;67962;47.310;9.642;2023-02-26T09:21:01;2.58;;;2.10;;
78648;SDS011;67962;47.310;9.642;2023-02-26T09:28:20;2.45;;;1.92;;
78648;SDS011;67962;47.310;9.642;2023-02-26T09:33:11;3.60;;;1.77;;
78648;SDS011;67962;47.310;9.642;2023-02-26T09:35:37;3.33;;;2.30;;
78648;SDS011;67962;47.310;9.642;2023-02-26T09:43:09;4.25;;;2.50;;
78648;SDS011;67962;47.310;9.642;2023-02-26T09:57:47;4.65;;;2.15;;
78648;SDS011;67962;47.310;9.642;2023-02-26T10:10:08;3.95;;;2.38;;
78648;SDS011;67962;47.310;9.642;2023-02-26T10:12:36;6.88;;;2.15;;
78648;SDS011;67962;47.310;9.642;2023-02-26T10:24:57;4.28;;;2.08;;
78648;SDS011;67962;47.310;9.642;2023-02-26T10:29:57;1.95;;;1.70;;
78648;SDS011;67962;47.310;9.642;2023-02-26T10:34:59;3.72;;;1.80;;
78648;SDS011;67962;47.310;9.642;2023-02-26T10:54:36;3.20;;;1.48;;
78648;SDS011;67962;47.310;9.642;2023-02-26T10:57:13;3.88;;;1.60;;
78648;SDS011;67962;47.310;9.642;2023-02-26T10:59:34;2.88;;;1.67;;
78648;SDS011;67962;47.310;9.642;2023-02-26T11:09:28;3.03;;;1.65;;
78648;SDS011;67962;47.310;9.642;2023-02-26T11:11:54;3.63;;;1.40;;
78648;SDS011;67962;47.310;9.642;2023-02-26T11:14:20;4.03;;;1.50;;
78648;SDS011;67962;47.310;9.642;2023-02-26T11:16:48;2.22;;;1.40;;
78648;SDS011;67962;47.310;9.642;2023-02-26T11:19:16;4.03;;;1.50;;
78648;SDS011;67962;47.310;9.642;2023-02-26T11:21:49;2.40;;;1.70;;
78648;SDS011;67962;47.310;9.642;2023-02-26T11:26:45;3.30;;;1.90;;
78648;SDS011;67962;47.310;9.642;2023-02-26T11:31:38;3.72;;;1.52;;
78648;SDS011;67962;47.310;9.642;2023-02-26T11:34:06;2.92;;;1.40;;
78648;SDS011;67962;47.310;9.642;2023-02-26T11:36:33;2.78;;;1.50;;
78648;SDS011;67962;47.310;9.642;2023-02-26T11:41:28;5.30;;;1.30;;
78648;SDS011;67962;47.310;9.642;2023-02-26T11:43:57;2.72;;;1.45;;
78648;SDS011;67962;47.310;9.642;2023-02-26T11:46:26;3.03;;;1.30;;
78648;SDS011;67962;47.310;9.642;2023-02-26T11:48:59;2.28;;;1.55;;
78648;SDS011;67962;47.310;9.642;2023-02-26T11:58:49;2.10;;;1.60;;
78648;SDS011;67962;47.310;9.642;2023-02-26T12:01:16;1.95;;;1.30;;
78648;SDS011;67962;47.310;9.642;2023-02-26T12:06:16;3.28;;;1.75;;
78648;SDS011;67962;47.310;9.642;2023-02-26T12:08:44;3.17;;;1.50;;
78648;SDS011;67962;47.310;9.642;2023-02-26T12:13:49;2.33;;;1.58;;
78648;SDS011;67962;47.310;9.642;2023-02-26T12:18:57;5.15;;;1.67;;
78648;SDS011;67962;47.310;9.642;2023-02-26T12:26:53;2.85;;;1.52;;
78648;SDS011;67962;47.310;9.642;2023-02-26T12:32:13;1.98;;;1.73;;
78648;SDS011;67962;47.310;9.642;2023-02-26T12:35:38;3.35;;;1.45;;
78648;SDS011;67962;47.310;9.642;2023-02-26T12:51:43;3.08;;;1.35;;
78648;SDS011;67962;47.310;9.642;2023-02-26T12:54:20;2.17;;;1.67;;
78648;SDS011;67962;47.310;9.642;2023-02-26T12:57:36;2.35;;;1.38;;
78648;SDS011;67962;47.310;9.642;2023-02-26T13:00:12;1.77;;;1.30;;
78648;SDS011;67962;47.310;9.642;2023-02-26T13:03:17;2.33;;;1.50;;
78648;SDS011;67962;47.310;9.642;2023-02-26T13:06:18;1.80;;;1.30;;
78648;SDS011;67962;47.310;9.642;2023-02-26T13:20:39;2.97;;;1.50;;
78648;SDS011;67962;47.310;9.642;2023-02-26T13:23:23;1.98;;;1.40;;
78648;SDS011;67962;47.310;9.642;2023-02-26T13:25:58;2.70;;;1.58;;
78648;SDS011;67962;47.310;9.642;2023-02-26T13:28:34;2.03;;;1.40;;
78648;SDS011;67962;47.310;9.642;2023-02-26T13:31:16;5.22;;;1.70;;
78648;SDS011;67962;47.310;9.642;2023-02-26T13:33:49;2.03;;;1.00;;
78648;SDS011;67962;47.310;9.642;2023-02-26T13:36:18;2.88;;;1.30;;
78648;SDS011;67962;47.310;9.642;2023-02-26T13:44:34;2.83;;;1.55;;
78648;SDS011;67962;47.310;9.642;2023-02-26T13:53:04;2.55;;;1.42;;
78648;SDS011;67962;47.310;9.642;2023-02-26T13:56:04;2.42;;;1.63;;
78648;SDS011;67962;47.310;9.642;2023-02-26T13:58:38;2.83;;;1.50;;
78648;SDS011;67962;47.310;9.642;2023-02-26T14:01:08;4.45;;;1.50;;
78648;SDS011;67962;47.310;9.642;2023-02-26T14:03:44;9.93;;;1.55;;
78648;SDS011;67962;47.310;9.642;2023-02-26T14:09:03;1.80;;;1.45;;
78648;SDS011;67962;47.310;9.642;2023-02-26T14:12:17;1.40;;;1.27;;
78648;SDS011;67962;47.310;9.642;2023-02-26T14:17:28;2.45;;;1.40;;
78648;SDS011;67962;47.310;9.642;2023-02-26T14:20:23;1.40;;;1.27;;
78648;SDS011;67962;47.310;9.642;2023-02-26T14:23:24;1.42;;;1.33;;
78648;SDS011;67962;47.310;9.642;2023-02-26T14:30:50;2.38;;;1.40;;
78648;SDS011;67962;47.310;9.642;2023-02-26T14:33:36;1.55;;;1.38;;
78648;SDS011;67962;47.310;9.642;2023-02-26T14:36:08;2.05;;;1.40;;
78648;SDS011;67962;47.310;9.642;2023-02-26T14:38:56;4.53;;;1.30;;
78648;SDS011;67962;47.310;9.642;2023-02-26T14:44:10;1.20;;;1.10;;
78648;SDS011;67962;47.310;9.642;2023-02-26T14:46:46;1.70;;;1.30;;
78648;SDS011;67962;47.310;9.642;2023-02-26T14:49:17;2.13;;;1.30;;
78648;SDS011;67962;47.310;9.642;2023-02-26T14:52:22;1.55;;;1.10;;
78648;SDS011;67962;47.310;9.642;2023-02-26T14:57:30;2.53;;;1.42;;
78648;SDS011;67962;47.310;9.642;2023-02-26T15:00:10;2.88;;;1.20;;
78648;SDS011;67962;47.310;9.642;2023-02-26T15:02:55;1.70;;;1.35;;
78648;SDS011;67962;47.310;9.642;2023-02-26T15:19:21;1.38;;;1.17;;
78648;SDS011;67962;47.310;9.642;2023-02-26T15:24:31;1.35;;;1.20;;
78648;SDS011;67962;47.310;9.642;2023-02-26T15:26:58;1.27;;;1.10;;
78648;SDS011;67962;47.310;9.642;2023-02-26T15:29:27;1.40;;;1.20;;
78648;SDS011;67962;47.310;9.642;2023-02-26T15:31:57;1.85;;;1.40;;
78648;SDS011;67962;47.310;9.642;2023-02-26T15:34:27;1.95;;;1.48;;
78648;SDS011;67962;47.310;9.642;2023-02-26T15:36:55;2.38;;;1.40;;
78648;SDS011;67962;47.310;9.642;2023-02-26T15:39:25;1.92;;;1.23;;
78648;SDS011;67962;47.310;9.642;2023-02-26T15:41:52;1.38;;;1.20;;
78648;SDS011;67962;47.310;9.642;2023-02-26T15:44:23;2.33;;;1.50;;
78648;SDS011;67962;47.310;9.642;2023-02-26T15:46:55;2.75;;;1.50;;
78648;SDS011;67962;47.310;9.642;2023-02-26T15:52:02;3.55;;;1.55;;
78648;SDS011;67962;47.310;9.642;2023-02-26T15:54:34;1.67;;;1.20;;
78648;SDS011;67962;47.310;9.642;2023-02-26T15:57:13;2.00;;;1.40;;
78648;SDS011;67962;47.310;9.642;2023-02-26T15:59:42;1.90;;;1.63;;
78648;SDS011;67962;47.310;9.642;2023-02-26T16:02:13;1.88;;;1.50;;
78648;SDS011;67962;47.310;9.642;2023-02-26T16:04:43;2.10;;;1.70;;
78648;SDS011;67962;47.310;9.642;2023-02-26T16:07:10;3.08;;;1.95;;
78648;SDS011;67962;47.310;9.642;2023-02-26T16:09:41;2.35;;;1.73;;
78648;SDS011;67962;47.310;9.642;2023-02-26T16:12:15;2.45;;;1.67;;
78648;SDS011;67962;47.310;9.642;2023-02-26T16:14:59;2.05;;;1.85;;
78648;SDS011;67962;47.310;9.642;2023-02-26T16:17:38;1.90;;;1.70;;
78648;SDS011;67962;47.310;9.642;2023-02-26T16:20:10;2.38;;;1.80;;
78648;SDS011;67962;47.310;9.642;2023-02-26T16:25:34;2.60;;;1.75;;
78648;SDS011;67962;47.310;9.642;2023-02-26T16:28:15;2.08;;;1.65;;
78648;SDS011;67962;47.310;9.642;2023-02-26T16:30:46;2.25;;;1.80;;
78648;SDS011;67962;47.310;9.642;2023-02-26T16:33:16;2.00;;;1.70;;
78648;SDS011;67962;47.310;9.642;2023-02-26T16:35:47;2.05;;;1.85;;
78648;SDS011;67962;47.310;9.642;2023-02-26T16:38:18;2.22;;;1.70;;
78648;SDS011;67962;47.310;9.642;2023-02-26T16:40:53;1.95;;;1.65;;
78648;SDS011;67962;47.310;9.642;2023-02-26T16:46:00;2.63;;;1.67;;
78648;SDS011;67962;47.310;9.642;2023-02-26T16:51:11;3.30;;;1.60;;
78648;SDS011;67962;47.310;9.642;2023-02-26T16:53:43;2.15;;;1.80;;
78648;SDS011;67962;47.310;9.642;2023-02-26T16:56:17;2.63;;;1.88;;
78648;SDS011;67962;47.310;9.642;2023-02-26T16:58:49;2.05;;;1.58;;
78648;SDS011;67962;47.310;9.642;2023-02-26T17:01:26;2.28;;;1.77;;
78648;SDS011;67962;47.310;9.642;2023-02-26T17:03:55;3.80;;;1.65;;
78648;SDS011;67962;47.310;9.642;2023-02-26T17:06:26;2.53;;;1.83;;
78648;SDS011;67962;47.310;9.642;2023-02-26T17:08:57;1.98;;;1.70;;
78648;SDS011;67962;47.310;9.642;2023-02-26T17:11:26;2.20;;;1.95;;
78648;SDS011;67962;47.310;9.642;2023-02-26T17:16:29;2.13;;;1.60;;
78648;SDS011;67962;47.310;9.642;2023-02-26T17:18:55;2.33;;;1.90;;
78648;SDS011;67962;47.310;9.642;2023-02-26T17:21:21;1.80;;;1.60;;
78648;SDS011;67962;47.310;9.642;2023-02-26T17:23:49;2.00;;;1.75;;
78648;SDS011;67962;47.310;9.642;2023-02-26T17:26:15;4.55;;;2.00;;
78648;SDS011;67962;47.310;9.642;2023-02-26T17:28:42;2.58;;;1.75;;
78648;SDS011;67962;47.310;9.642;2023-02-26T17:31:09;3.00;;;1.90;;
78648;SDS011;67962;47.310;9.642;2023-02-26T17:33:37;3.33;;;2.00;;
78648;SDS011;67962;47.310;9.642;2023-02-26T17:36:09;2.88;;;2.10;;
78648;SDS011;67962;47.310;9.642;2023-02-26T17:38:38;2.13;;;1.67;;
78648;SDS011;67962;47.310;9.642;2023-02-26T17:41:08;2.80;;;2.00;;
78648;SDS011;67962;47.310;9.642;2023-02-26T17:43:36;3.53;;;2.00;;
78648;SDS011;67962;47.310;9.642;2023-02-26T17:46:03;2.75;;;2.00;;
78648;SDS011;67962;47.310;9.642;2023-02-26T17:48:29;2.65;;;2.20;;
78648;SDS011;67962;47.310;9.642;2023-02-26T17:50:56;2.90;;;1.80;;
78648;SDS011;67962;47.310;9.642;2023-02-26T17:53:23;3.05;;;1.90;;
78648;SDS011;67962;47.310;9.642;2023-02-26T17:56:09;2.50;;;1.88;;
78648;SDS011;67962;47.310;9.642;2023-02-26T17:58:39;2.65;;;2.00;;
78648;SDS011;67962;47.310;9.642;2023-02-26T18:01:05;4.32;;;2.00;;
78648;SDS011;67962;47.310;9.642;2023-02-26T18:03:32;3.58;;;2.08;;
78648;SDS011;67962;47.310;9.642;2023-02-26T18:06:00;2.67;;;1.85;;
78648;SDS011;67962;47.310;9.642;2023-02-26T18:08:28;2.75;;;2.05;;
78648;SDS011;67962;47.310;9.642;2023-02-26T18:10:56;4.03;;;2.38;;
78648;SDS011;67962;47.310;9.642;2023-02-26T18:13:23;4.97;;;2.20;;
78648;SDS011;67962;47.310;9.642;2023-02-26T18:15:50;2.60;;;2.10;;
78648;SDS011;67962;47.310;9.642;2023-02-26T18:18:17;5.43;;;2.67;;
78648;SDS011;67962;47.310;9.642;2023-02-26T18:20:45;3.65;;;2.53;;
78648;SDS011;67962;47.310;9.642;2023-02-26T18:23:12;4.75;;;2.97;;
78648;SDS011;67962;47.310;9.642;2023-02-26T18:25:42;4.07;;;2.72;;
78648;SDS011;67962;47.310;9.642;2023-02-26T18:28:15;8.23;;;4.22;;
78648;SDS011;67962;47.310;9.642;2023-02-26T18:30:52;3.55;;;2.53;;
78648;SDS011;67962;47.310;9.642;2023-02-26T18:33:19;3.63;;;2.42;;
78648;SDS011;67962;47.310;9.642;2023-02-26T18:35:50;6.35;;;3.80;;
78648;SDS011;67962;47.310;9.642;2023-02-26T18:38:21;6.78;;;3.92;;
78648;SDS011;67962;47.310;9.642;2023-02-26T18:40:50;6.35;;;3.47;;
78648;SDS011;67962;47.310;9.642;2023-02-26T18:43:18;11.73;;;4.90;;
78648;SDS011;67962;47.310;9.642;2023-02-26T18:45:45;12.27;;;6.80;;
78648;SDS011;67962;47.310;9.642;2023-02-26T18:48:13;9.93;;;5.63;;
78648;SDS011;67962;47.310;9.642;2023-02-26T18:50:41;20.20;;;8.63;;
78648;SDS011;67962;47.310;9.642;2023-02-26T18:53:11;10.35;;;6.30;;
78648;SDS011;67962;47.310;9.642;2023-02-26T18:55:39;13.23;;;7.85;;
78648;SDS011;67962;47.310;9.642;2023-02-26T18:58:05;11.93;;;6.45;;
78648;SDS011;67962;47.310;9.642;2023-02-26T19:00:32;13.57;;;7.38;;
78648;SDS011;67962;47.310;9.642;2023-02-26T19:02:59;13.48;;;7.85;;
78648;SDS011;67962;47.310;9.642;2023-02-26T19:05:25;13.77;;;6.65;;
78648;SDS011;67962;47.310;9.642;2023-02-26T19:07:53;11.40;;;7.15;;
78648;SDS011;67962;47.310;9.642;2023-02-26T19:10:19;11.93;;;6.40;;
78648;SDS011;67962;47.310;9.642;2023-02-26T19:12:46;10.57;;;5.82;;
78648;SDS011;67962;47.310;9.642;2023-02-26T19:15:14;9.95;;;5.40;;
78648;SDS011;67962;47.310;9.642;2023-02-26T19:17:42;9.48;;;5.03;;
78648;SDS011;67962;47.310;9.642;2023-02-26T19:20:08;10.50;;;5.50;;
78648;SDS011;67962;47.310;9.642;2023-02-26T19:22:37;10.77;;;5.20;;
78648;SDS011;67962;47.310;9.642;2023-02-26T19:25:04;10.35;;;5.38;;
78648;SDS011;67962;47.310;9.642;2023-02-26T19:27:34;11.00;;;4.72;;
78648;SDS011;67962;47.310;9.642;2023-02-26T19:30:01;10.20;;;3.88;;
78648;SDS011;67962;47.310;9.642;2023-02-26T19:32:28;8.13;;;4.25;;
78648;SDS011;67962;47.310;9.642;2023-02-26T19:34:55;5.78;;;3.97;;
78648;SDS011;67962;47.310;9.642;2023-02-26T19:37:21;6.25;;;4.03;;
78648;SDS011;67962;47.310;9.642;2023-02-26T19:39:47;6.22;;;3.88;;
78648;SDS011;67962;47.310;9.642;2023-02-26T19:42:14;6.32;;;3.75;;
78648;SDS011;67962;47.310;9.642;2023-02-26T19:44:40;4.95;;;3.20;;
78648;SDS011;67962;47.310;9.642;2023-02-26T19:47:06;4.78;;;3.20;;
78648;SDS011;67962;47.310;9.642;2023-02-26T19:49:32;6.95;;;3.35;;
78648;SDS011;67962;47.310;9.642;2023-02-26T19:51:59;5.47;;;3.20;;
78648;SDS011;67962;47.310;9.642;2023-02-26T19:54:25;5.47;;;3.35;;
78648;SDS011;67962;47.310;9.642;2023-02-26T19:56:52;4.43;;;3.00;;
78648;SDS011;67962;47.310;9.642;2023-02-26T19:59:18;4.75;;;3.38;;
78648;SDS011;67962;47.310;9.642;2023-02-26T20:01:45;5.25;;;3.42;;
78648;SDS011;67962;47.310;9.642;2023-02-26T20:04:13;6.38;;;3.05;;
78648;SDS011;67962;47.310;9.642;2023-02-26T20:06:41;6.20;;;3.50;;
78648;SDS011;67962;47.310;9.642;2023-02-26T20:09:07;5.47;;;3.45;;
78648;SDS011;67962;47.310;9.642;2023-02-26T20:11:34;7.07;;;3.42;;
78648;SDS011;67962;47.310;9.642;2023-02-26T20:14:02;4.65;;;3.22;;
78648;SDS011;67962;47.310;9.642;2023-02-26T20:16:28;4.35;;;3.30;;
78648;SDS011;67962;47.310;9.642;2023-02-26T20:18:56;4.35;;;3.17;;
78648;SDS011;67962;47.310;9.642;2023-02-26T20:21:22;5.43;;;2.97;;
78648;SDS011;67962;47.310;9.642;2023-02-26T20:23:48;5.28;;;3.15;;
78648;SDS011;67962;47.310;9.642;2023-02-26T20:26:14;7.75;;;3.67;;
78648;SDS011;67962;47.310;9.642;2023-02-26T20:28:41;4.38;;;3.08;;
78648;SDS011;67962;47.310;9.642;2023-02-26T20:31:07;4.57;;;2.78;;
78648;SDS011;67962;47.310;9.642;2023-02-26T20:33:34;4.32;;;2.78;;
78648;SDS011;67962;47.310;9.642;2023-02-26T20:36:03;6.10;;;2.97;;
78648;SDS011;67962;47.310;9.642;2023-02-26T20:38:31;4.07;;;2.65;;
78648;SDS011;67962;47.310;9.642;2023-02-26T20:40:57;3.00;;;2.70;;
78648;SDS011;67962;47.310;9.642;2023-02-26T20:43:23;4.57;;;2.97;;
78648;SDS011;67962;47.310;9.642;2023-02-26T20:45:49;4.22;;;2.70;;
78648;SDS011;67962;47.310;9.642;2023-02-26T20:48:16;6.57;;;2.90;;
78648;SDS011;67962;47.310;9.642;2023-02-26T20:50:43;4.07;;;2.40;;
78648;SDS011;67962;47.310;9.642;2023-02-26T20:53:10;4.28;;;2.60;;
78648;SDS011;67962;47.310;9.642;2023-02-26T20:55:36;4.20;;;2.30;;
78648;SDS011;67962;47.310;9.642;2023-02-26T20:58:02;3.40;;;2.25;;
78648;SDS011;67962;47.310;9.642;2023-02-26T21:00:28;4.57;;;2.13;;
78648;SDS011;67962;47.310;9.642;2023-02-26T21:02:55;3.60;;;2.30;;
78648;SDS011;67962;47.310;9.642;2023-02-26T21:05:21;6.78;;;2.10;;
78648;SDS011;67962;47.310;9.642;2023-02-26T21:07:47;4.07;;;2.30;;
78648;SDS011;67962;47.310;9.642;2023-02-26T21:10:15;3.03;;;2.17;;
78648;SDS011;67962;47.310;9.642;2023-02-26T21:12:45;3.90;;;2.10;;
78648;SDS011;67962;47.310;9.642;2023-02-26T21:15:11;2.85;;;2.00;;
78648;SDS011;67962;47.310;9.642;2023-02-26T21:17:39;3.20;;;2.40;;
78648;SDS011;67962;47.310;9.642;2023-02-26T21:20:06;2.97;;;2.28;;
78648;SDS011;67962;47.310;9.642;2023-02-26T21:22:34;3.03;;;2.20;;
78648;SDS011;67962;47.310;9.642;2023-02-26T21:25:01;2.85;;;2.00;;
78648;SDS011;67962;47.310;9.642;2023-02-26T21:27:28;3.00;;;1.95;;
78648;SDS011;67962;47.310;9.642;2023-02-26T21:29:54;2.00;;;1.58;;
78648;SDS011;67962;47.310;9.642;2023-02-26T21:32:20;3.92;;;2.20;;
78648;SDS011;67962;47.310;9.642;2023-02-26T21:34:46;3.10;;;1.80;;
78648;SDS011;67962;47.310;9.642;2023-02-26T21:37:11;3.10;;;1.73;;